createdAt,value
2022-08-17T00:00:43.193Z,97202.98
2022-08-17T00:03:13.636Z,97205.92
2022-08-17T00:05:50.689Z,97210.36
2022-08-17T00:08:22.073Z,97214.17
2022-08-17T00:10:52.556Z,97220.66
2022-08-17T00:13:28.540Z,97223.94
2022-08-17T00:15:59.982Z,97225.69
2022-08-17T00:19:06.104Z,97229.98
2022-08-17T00:21:23.774Z,97231.14
2022-08-17T00:23:54.504Z,97226.95
2022-08-17T00:26:34.627Z,97226.30
2022-08-17T00:29:19.391Z,97225.83
2022-08-17T00:31:49.752Z,97228.17
2022-08-17T00:34:18.304Z,97228.66
2022-08-17T00:36:46.531Z,97222.95
2022-08-17T00:39:14.777Z,97213.95
2022-08-17T00:41:43.395Z,97207.50
2022-08-17T00:44:12.484Z,97210.99
2022-08-17T00:46:43.812Z,97213.75
2022-08-17T00:49:14.350Z,97217.98
2022-08-17T00:51:49.478Z,97218.17
2022-08-17T00:54:33.113Z,97217.88
2022-08-17T00:57:16.609Z,97228.38
2022-08-17T01:00:01.629Z,97230.54
2022-08-17T01:02:41.967Z,97225.42
2022-08-17T01:05:25.295Z,97221.09
2022-08-17T01:07:54.502Z,97220.09
2022-08-17T01:10:57.193Z,97222.50
2022-08-17T01:13:18.212Z,97223.59
2022-08-17T01:15:50.867Z,97234.84
2022-08-17T01:18:19.451Z,97233.05
2022-08-17T01:20:50.785Z,97232.79
2022-08-17T01:23:21.435Z,97236.10
2022-08-17T01:25:58.232Z,97231.92
2022-08-17T01:28:52.299Z,97230.70
2022-08-17T01:31:19.472Z,97228.74
2022-08-17T01:33:47.928Z,97226.92
2022-08-17T01:36:16.199Z,97226.09
2022-08-17T01:38:44.270Z,97222.76
2022-08-17T01:41:16.647Z,97224.89
2022-08-17T01:43:49.962Z,97227.05
2022-08-17T01:46:26.302Z,97224.33
2022-08-17T01:48:56.454Z,97219.75
2022-08-17T01:51:33.181Z,97217.43
2022-08-17T01:54:08.962Z,97217.66
2022-08-17T01:56:40.706Z,97221.33
2022-08-17T01:59:10.227Z,97220.54
2022-08-17T02:01:38.754Z,97219.05
2022-08-17T02:04:08.583Z,97219.66
2022-08-17T02:06:44.912Z,97216.11
2022-08-17T02:09:16.937Z,97212.68
2022-08-17T02:11:46.224Z,97211.47
2022-08-17T02:14:14.522Z,97207.57
2022-08-17T02:16:42.894Z,97206.70
2022-08-17T02:19:16.020Z,97209.52
2022-08-17T02:21:47.976Z,97209.30
2022-08-17T02:24:58.834Z,97206.99
2022-08-17T02:27:10.205Z,97210.38
2022-08-17T02:29:38.895Z,97207.65
2022-08-17T02:32:15.565Z,97206.48
2022-08-17T02:34:54.597Z,97207.05
2022-08-17T02:37:22.767Z,97207.20
2022-08-17T02:39:51.018Z,97208.95
2022-08-17T02:42:27.786Z,97211.09
2022-08-17T02:44:56.032Z,97212.89
2022-08-17T02:47:25.504Z,97216.36
2022-08-17T02:49:55.834Z,97218.52
2022-08-17T02:52:43.318Z,97220.10
2022-08-17T02:55:17.061Z,97222.27
2022-08-17T02:57:45.593Z,97226.98
2022-08-17T03:00:18.880Z,97231.34
2022-08-17T03:02:47.889Z,97226.29
2022-08-17T03:05:20.528Z,97224.20
2022-08-17T03:07:49.293Z,97226.65
2022-08-17T03:10:18.215Z,97232.12
2022-08-17T03:12:47.106Z,97236.31
2022-08-17T03:15:20.251Z,97236.24
2022-08-17T03:17:48.771Z,97234.63
2022-08-17T03:20:17.392Z,97235.66
2022-08-17T03:22:53.673Z,97238.41
2022-08-17T03:25:26.813Z,97240.53
2022-08-17T03:27:56.908Z,97236.99
2022-08-17T03:30:27.142Z,97239.96
2022-08-17T03:33:00.321Z,97243.48
2022-08-17T03:35:32.007Z,97246.84
2022-08-17T03:38:01.370Z,97244.09
2022-08-17T03:40:34.441Z,97243.84
2022-08-17T03:43:22.107Z,97249.60
2022-08-17T03:46:10.818Z,97253.58
2022-08-17T03:49:15.720Z,97254.30
2022-08-17T03:52:02.410Z,97249.20
2022-08-17T03:54:49.318Z,97245.83
2022-08-17T03:57:17.590Z,97243.95
2022-08-17T03:59:45.773Z,97243.04
2022-08-17T04:02:24.147Z,97245.27
2022-08-17T04:04:52.968Z,97244.23
2022-08-17T04:07:23.706Z,97246.40
2022-08-17T04:09:51.979Z,97248.77
2022-08-17T04:12:23.195Z,97252.08
2022-08-17T04:14:54.683Z,97252.08
2022-08-17T04:17:26.235Z,97254.59
2022-08-17T04:19:55.649Z,97259.22
2022-08-17T04:22:30.803Z,97260.80
2022-08-17T04:25:08.688Z,97258.52
2022-08-17T04:27:36.878Z,97263.29
2022-08-17T04:30:07.442Z,97263.75
2022-08-17T04:32:58.576Z,97266.35
2022-08-17T04:35:43.805Z,97268.95
2022-08-17T04:38:14.950Z,97267.01
2022-08-17T04:41:02.028Z,97265.27
2022-08-17T04:43:32.437Z,97270.61
2022-08-17T04:46:03.063Z,97274.78
2022-08-17T04:48:35.969Z,97275.59
2022-08-17T04:51:08.303Z,97274.67
2022-08-17T04:53:36.617Z,97275.27
2022-08-17T04:56:05.202Z,97271.77
2022-08-17T04:58:33.996Z,97271.83
2022-08-17T05:01:02.065Z,97279.16
2022-08-17T05:03:30.856Z,97280.17
2022-08-17T05:05:59.340Z,97280.61
2022-08-17T05:08:27.405Z,97275.42
2022-08-17T05:10:55.584Z,97273.84
2022-08-17T05:13:26.699Z,97271.06
2022-08-17T05:15:57.875Z,97266.80
2022-08-17T05:18:27.677Z,97269.71
2022-08-17T05:20:57.188Z,97271.38
2022-08-17T05:23:27.598Z,97274.59
2022-08-17T05:26:26.370Z,97275.02
2022-08-17T05:28:58.452Z,97273.38
2022-08-17T05:31:29.628Z,97271.92
2022-08-17T05:33:59.025Z,97276.78
2022-08-17T05:36:38.096Z,97279.59
2022-08-17T05:39:16.319Z,97282.75
2022-08-17T05:41:47.423Z,97287.27
2022-08-17T05:44:16.468Z,97288.33
2022-08-17T05:46:49.878Z,97287.98
2022-08-17T05:49:24.725Z,97290.80
2022-08-17T05:52:18.869Z,97289.20
2022-08-17T05:55:03.362Z,97292.80
2022-08-17T05:57:57.851Z,97292.85
2022-08-17T06:00:34.111Z,97293.98
2022-08-17T06:03:11.303Z,97292.87
2022-08-17T06:05:59.459Z,97297.16
2022-08-17T06:08:41.237Z,97297.68
2022-08-17T06:11:27.439Z,97302.06
2022-08-17T06:13:56.126Z,97304.95
2022-08-17T06:16:34.497Z,97304.08
2022-08-17T06:19:12.134Z,97305.94
2022-08-17T06:21:44.809Z,97304.66
2022-08-17T06:24:22.413Z,97301.94
2022-08-17T06:26:51.418Z,97304.70
2022-08-17T06:29:28.277Z,97307.19
2022-08-17T06:31:57.096Z,97306.55
2022-08-17T06:34:25.136Z,97304.83
2022-08-17T06:37:15.125Z,97306.09
2022-08-17T06:39:46.329Z,97306.89
2022-08-17T06:43:00.819Z,97304.17
2022-08-17T06:45:39.121Z,97301.98
2022-08-17T06:48:10.188Z,97301.90
2022-08-17T06:51:01.197Z,97304.10
2022-08-17T06:53:45.778Z,97303.88
2022-08-17T06:56:54.620Z,97302.91
2022-08-17T06:59:25.401Z,97302.54
2022-08-17T07:01:55.739Z,97304.20
2022-08-17T07:04:30.310Z,97303.22
2022-08-17T07:07:22.315Z,97302.46
2022-08-17T07:09:52.992Z,97301.77
2022-08-17T07:12:25.607Z,97303.29
2022-08-17T07:15:04.504Z,97303.25
2022-08-17T07:17:46.508Z,97304.14
2022-08-17T07:20:20.657Z,97305.39
2022-08-17T07:23:09.099Z,97302.21
2022-08-17T07:25:37.167Z,97304.30
2022-08-17T07:28:07.916Z,97305.42
2022-08-17T07:30:46.963Z,97304.46
2022-08-17T07:33:20.739Z,97304.13
2022-08-17T07:35:50.282Z,97305.65
2022-08-17T07:38:26.858Z,97305.27
2022-08-17T07:41:02.156Z,97303.88
2022-08-17T07:43:42.414Z,97301.04
2022-08-17T07:46:38.241Z,97302.78
2022-08-17T07:49:09.301Z,97298.58
2022-08-17T07:51:39.678Z,97296.73
2022-08-17T07:54:20.579Z,97299.25
2022-08-17T07:56:56.327Z,97299.52
2022-08-17T07:59:41.270Z,97302.02
2022-08-17T08:02:17.238Z,97306.69
2022-08-17T08:05:30.696Z,97302.44
2022-08-17T08:08:35.929Z,97300.73
2022-08-17T08:11:28.479Z,97299.71
2022-08-17T08:14:22.718Z,97295.00
2022-08-17T08:17:06.816Z,97295.45
2022-08-17T08:19:37.444Z,97299.00
2022-08-17T08:22:11.192Z,97295.77
2022-08-17T08:24:56.731Z,97295.42
2022-08-17T08:27:34.716Z,97292.30
2022-08-17T08:30:06.694Z,97298.32
2022-08-17T08:32:56.622Z,97297.45
2022-08-17T08:35:38.166Z,97296.36
2022-08-17T08:38:23.755Z,97296.41
2022-08-17T08:41:10.257Z,97298.20
2022-08-17T08:43:56.969Z,97299.39
2022-08-17T08:46:28.008Z,97292.21
2022-08-17T08:49:33.803Z,97289.50
2022-08-17T08:52:35.826Z,97291.39
2022-08-17T08:55:10.869Z,97291.35
2022-08-17T08:58:04.230Z,97291.28
2022-08-17T09:00:38.233Z,97290.38
2022-08-17T09:03:20.367Z,97290.55
2022-08-17T09:05:53.669Z,97294.45
2022-08-17T09:08:24.722Z,97298.59
2022-08-17T09:11:18.043Z,97296.52
2022-08-17T09:14:21.151Z,97297.02
2022-08-17T09:17:15.185Z,97301.30
2022-08-17T09:19:53.670Z,97298.84
2022-08-17T09:22:32.656Z,97295.45
2022-08-17T09:25:07.386Z,97295.67
2022-08-17T09:27:57.580Z,97300.05
2022-08-17T09:30:43.655Z,97301.60
2022-08-17T09:33:15.844Z,97299.49
2022-08-17T09:35:50.581Z,97297.14
2022-08-17T09:38:44.646Z,97299.71
2022-08-17T09:41:39.040Z,97301.77
2022-08-17T09:44:23.060Z,97300.54
2022-08-17T09:47:05.005Z,97302.05
2022-08-17T09:50:02.344Z,97304.24
2022-08-17T09:52:32.289Z,97307.69
2022-08-17T09:55:01.986Z,97308.61
2022-08-17T09:58:07.517Z,97308.21
2022-08-17T10:00:41.081Z,97307.89
2022-08-17T10:03:28.539Z,97310.23
2022-08-17T10:06:24.633Z,97311.88
2022-08-17T10:09:08.447Z,97308.34
2022-08-17T10:12:01.573Z,97306.17
2022-08-17T10:14:43.958Z,97303.66
2022-08-17T10:17:29.149Z,97303.45
2022-08-17T10:20:15.686Z,97304.35
2022-08-17T10:23:09.630Z,97298.58
2022-08-17T10:26:04.122Z,97297.52
2022-08-17T10:28:49.322Z,97296.90
2022-08-17T10:31:40.082Z,97296.88
2022-08-17T10:34:40.983Z,97297.66
2022-08-17T10:37:25.394Z,97293.77
2022-08-17T10:40:02.864Z,97293.55
2022-08-17T10:42:43.963Z,97295.30
2022-08-17T10:46:30.974Z,97294.71
2022-08-17T10:49:25.376Z,97294.50
2022-08-17T10:51:58.852Z,97290.77
2022-08-17T10:54:39.059Z,97287.25
2022-08-17T10:57:32.194Z,97285.73
2022-08-17T11:00:08.559Z,97281.52
2022-08-17T11:02:51.299Z,97280.46
2022-08-17T11:05:42.982Z,97280.12
2022-08-17T11:08:27.460Z,97273.68
2022-08-17T11:11:23.485Z,97272.70
2022-08-17T11:14:14.086Z,97275.61
2022-08-17T11:17:05.213Z,97269.68
2022-08-17T11:19:48.217Z,97265.57
2022-08-17T11:22:37.285Z,97264.91
2022-08-17T11:25:34.643Z,97264.77
2022-08-17T11:28:14.618Z,97262.73
2022-08-17T11:30:54.259Z,97258.36
2022-08-17T11:33:38.169Z,97258.95
2022-08-17T11:36:52.125Z,97258.16
2022-08-17T11:39:38.383Z,97253.41
2022-08-17T11:42:26.790Z,97248.41
2022-08-17T11:45:03.652Z,97251.01
2022-08-17T11:48:27.735Z,97252.67
2022-08-17T11:51:27.247Z,97246.65
2022-08-17T11:54:14.724Z,97240.52
2022-08-17T11:56:48.992Z,97240.05
2022-08-17T11:59:36.513Z,97239.30
2022-08-17T12:02:31.365Z,97241.34
2022-08-17T12:05:14.755Z,97238.95
2022-08-17T12:08:17.833Z,97233.71
2022-08-17T12:10:59.637Z,97234.48
2022-08-17T12:13:38.525Z,97231.86
2022-08-17T12:16:10.115Z,97225.33
2022-08-17T12:18:39.866Z,97222.84
2022-08-17T12:21:46.368Z,97223.55
2022-08-17T12:24:14.573Z,97226.15
2022-08-17T12:26:45.513Z,97226.41
2022-08-17T12:29:17.863Z,97224.10
2022-08-17T12:32:05.940Z,97225.35
2022-08-17T12:34:40.862Z,97225.41
2022-08-17T12:37:34.121Z,97225.29
2022-08-17T12:40:04.930Z,97225.59
2022-08-17T12:42:38.101Z,97225.95
2022-08-17T12:45:24.221Z,97225.73
2022-08-17T12:48:26.309Z,97229.05
2022-08-17T12:51:01.827Z,97228.92
2022-08-17T12:53:32.832Z,97229.63
2022-08-17T12:56:07.624Z,97226.83
2022-08-17T12:58:44.509Z,97229.02
2022-08-17T13:01:17.600Z,97221.98
2022-08-17T13:03:52.835Z,97223.95
2022-08-17T13:06:33.486Z,97223.33
2022-08-17T13:09:18.983Z,97220.81
2022-08-17T13:11:53.608Z,97223.34
2022-08-17T13:14:22.699Z,97223.31
2022-08-17T13:17:00.717Z,97224.89
2022-08-17T13:19:40.433Z,97224.97
2022-08-17T13:22:12.866Z,97226.08
2022-08-17T13:24:54.577Z,97225.37
2022-08-17T13:27:26.074Z,97223.89
2022-08-17T13:30:00.599Z,97225.95
2022-08-17T13:32:48.948Z,97232.61
2022-08-17T13:35:39.559Z,97241.43
2022-08-17T13:38:30.502Z,97255.14
2022-08-17T13:40:58.622Z,97261.60
2022-08-17T13:43:45.946Z,97256.02
2022-08-17T13:46:28.869Z,97251.50
2022-08-17T13:49:06.268Z,97254.07
2022-08-17T13:51:44.250Z,97254.06
2022-08-17T13:54:30.250Z,97254.14
2022-08-17T13:57:01.297Z,97251.09
2022-08-17T13:59:52.662Z,97245.40
2022-08-17T14:02:21.196Z,97246.70
2022-08-17T14:04:49.372Z,97245.06
2022-08-17T14:07:19.438Z,97241.60
2022-08-17T14:09:55.761Z,97239.55
2022-08-17T14:12:27.525Z,97245.77
2022-08-17T14:14:56.602Z,97246.57
2022-08-17T14:17:26.643Z,97249.70
2022-08-17T14:19:55.204Z,97249.66
2022-08-17T14:22:27.175Z,97245.08
2022-08-17T14:24:55.240Z,97240.20
2022-08-17T14:27:25.769Z,97236.05
2022-08-17T14:29:56.447Z,97235.39
2022-08-17T14:32:28.159Z,97237.20
2022-08-17T14:34:57.845Z,97239.21
2022-08-17T14:37:28.401Z,97246.73
2022-08-17T14:39:58.653Z,97257.52
2022-08-17T14:42:29.843Z,97258.20
2022-08-17T14:44:59.991Z,97259.10
2022-08-17T14:47:28.269Z,97255.76
2022-08-17T14:49:56.440Z,97251.52
2022-08-17T14:52:24.514Z,97240.73
2022-08-17T14:54:53.821Z,97234.59
2022-08-17T14:57:33.523Z,97225.53
2022-08-17T15:00:04.976Z,97219.46
2022-08-17T15:02:48.263Z,97218.80
2022-08-17T15:05:17.690Z,97220.61
2022-08-17T15:07:45.962Z,97222.39
2022-08-17T15:10:15.528Z,97223.13
2022-08-17T15:12:44.213Z,97223.47
2022-08-17T15:15:14.672Z,97220.33
2022-08-17T15:17:46.021Z,97221.80
2022-08-17T15:20:20.933Z,97221.99
2022-08-17T15:22:59.342Z,97224.98
2022-08-17T15:25:30.042Z,97229.63
2022-08-17T15:27:59.129Z,97238.17
2022-08-17T15:30:28.427Z,97236.50
2022-08-17T15:32:58.584Z,97240.65
2022-08-17T15:35:30.757Z,97248.13
2022-08-17T15:38:11.278Z,97248.59
2022-08-17T15:40:43.455Z,97250.84
2022-08-17T15:43:27.368Z,97245.14
2022-08-17T15:46:02.101Z,97250.48
2022-08-17T15:48:44.808Z,97257.52
2022-08-17T15:51:31.894Z,97258.69
2022-08-17T15:54:18.815Z,97255.59
2022-08-17T15:56:51.069Z,97255.39
2022-08-17T15:59:19.759Z,97255.95
2022-08-17T16:03:04.668Z,97264.02
2022-08-17T16:04:37.949Z,97274.41
2022-08-17T16:07:10.082Z,97283.23
2022-08-17T16:09:38.714Z,97288.59
2022-08-17T16:12:11.955Z,97299.47
2022-08-17T16:14:40.136Z,97310.19
2022-08-17T16:17:49.380Z,97309.02
2022-08-17T16:19:58.550Z,97303.63
2022-08-17T16:22:36.136Z,97302.48
2022-08-17T16:25:11.805Z,97303.44
2022-08-17T16:27:40.122Z,97304.48
2022-08-17T16:30:14.944Z,97308.82
2022-08-17T16:32:46.731Z,97312.92
2022-08-17T16:35:18.474Z,97305.20
2022-08-17T16:37:47.157Z,97306.66
2022-08-17T16:40:17.390Z,97302.13
2022-08-17T16:42:48.730Z,97303.58
2022-08-17T16:45:20.504Z,97312.07
2022-08-17T16:47:50.252Z,97318.48
2022-08-17T16:50:22.166Z,97327.95
2022-08-17T16:52:51.323Z,97335.57
2022-08-17T16:55:22.095Z,97346.94
2022-08-17T16:57:50.897Z,97355.52
2022-08-17T17:00:21.113Z,97359.14
2022-08-17T17:02:50.041Z,97352.53
2022-08-17T17:05:55.349Z,97351.63
2022-08-17T17:08:31.200Z,97354.55
2022-08-17T17:11:09.092Z,97357.56
2022-08-17T17:13:49.559Z,97355.90
2022-08-17T17:16:18.447Z,97353.77
2022-08-17T17:19:00.378Z,97350.50
2022-08-17T17:21:58.119Z,97355.54
2022-08-17T17:24:32.153Z,97359.80
2022-08-17T17:27:10.892Z,97353.33
2022-08-17T17:29:47.907Z,97347.00
2022-08-17T17:32:38.043Z,97345.75
2022-08-17T17:35:17.151Z,97348.80
2022-08-17T17:37:47.456Z,97355.95
2022-08-17T17:40:23.173Z,97360.02
2022-08-17T17:43:14.190Z,97356.79
2022-08-17T17:46:26.697Z,97355.66
2022-08-17T17:48:52.262Z,97353.41
2022-08-17T17:52:01.991Z,97348.78
2022-08-17T17:54:40.729Z,97349.83
2022-08-17T17:57:36.149Z,97352.55
2022-08-17T18:00:14.162Z,97353.44
2022-08-17T18:03:24.713Z,97354.82
2022-08-17T18:06:15.016Z,97348.77
2022-08-17T18:08:49.434Z,97345.77
2022-08-17T18:11:36.446Z,97344.42
2022-08-17T18:14:20.117Z,97346.88
2022-08-17T18:16:55.150Z,97345.73
2022-08-17T18:19:25.856Z,97348.23
2022-08-17T18:22:14.586Z,97352.28
2022-08-17T18:24:46.433Z,97356.80
2022-08-17T18:27:23.570Z,97354.31
2022-08-17T18:29:54.898Z,97359.41
2022-08-17T18:32:28.293Z,97362.27
2022-08-17T18:35:11.327Z,97368.19
2022-08-17T18:37:45.181Z,97369.18
2022-08-17T18:40:16.480Z,97367.51
2022-08-17T18:42:46.837Z,97368.92
2022-08-17T18:45:48.662Z,97372.20
2022-08-17T18:48:32.850Z,97374.50
2022-08-17T18:51:26.308Z,97380.49
2022-08-17T18:54:11.244Z,97378.63
2022-08-17T18:56:49.763Z,97375.25
2022-08-17T18:59:44.692Z,97375.05
2022-08-17T19:02:22.068Z,97383.16
2022-08-17T19:05:09.381Z,97383.40
2022-08-17T19:07:41.780Z,97381.39
2022-08-17T19:10:46.844Z,97386.69
2022-08-17T19:13:24.969Z,97387.58
2022-08-17T19:16:12.174Z,97389.62
2022-08-17T19:18:52.790Z,97394.40
2022-08-17T19:21:20.704Z,97394.34
2022-08-17T19:24:05.421Z,97395.16
2022-08-17T19:26:53.336Z,97391.05
2022-08-17T19:29:27.567Z,97395.30
2022-08-17T19:31:58.734Z,97401.10
2022-08-17T19:34:33.223Z,97402.55
2022-08-17T19:37:30.695Z,97406.34
2022-08-17T19:40:35.124Z,97406.19
2022-08-17T19:43:51.532Z,97404.30
2022-08-17T19:46:50.014Z,97400.73
2022-08-17T19:49:46.854Z,97403.41
2022-08-17T19:52:48.868Z,97401.85
2022-08-17T19:55:43.734Z,97400.66
2022-08-17T19:58:18.246Z,97404.61
2022-08-17T20:00:51.943Z,97404.66
2022-08-17T20:03:35.177Z,97401.42
2022-08-17T20:06:14.797Z,97399.90
2022-08-17T20:09:18.736Z,97403.17
2022-08-17T20:11:56.804Z,97400.19
2022-08-17T20:14:36.174Z,97398.16
2022-08-17T20:17:05.276Z,97401.50
2022-08-17T20:20:06.642Z,97401.54
2022-08-17T20:22:52.397Z,97399.23
2022-08-17T20:25:32.418Z,97402.54
2022-08-17T20:28:08.136Z,97400.59
2022-08-17T20:30:41.518Z,97401.50
2022-08-17T20:33:42.347Z,97404.16
2022-08-17T20:36:18.614Z,97405.63
2022-08-17T20:38:58.802Z,97403.73
2022-08-17T20:41:31.146Z,97402.44
2022-08-17T20:43:59.292Z,97399.48
2022-08-17T20:46:36.406Z,97394.93
2022-08-17T20:49:22.575Z,97397.42
2022-08-17T20:52:01.449Z,97396.63
2022-08-17T20:54:57.394Z,97398.60
2022-08-17T20:57:31.703Z,97396.95
2022-08-17T21:00:30.669Z,97397.66
2022-08-17T21:03:27.916Z,97403.70
2022-08-17T21:06:18.296Z,97399.76
2022-08-17T21:09:16.493Z,97399.21
2022-08-17T21:12:03.982Z,97396.92
2022-08-17T21:14:44.408Z,97392.52
2022-08-17T21:17:18.905Z,97398.36
2022-08-17T21:20:12.110Z,97404.40
2022-08-17T21:22:48.430Z,97401.67
2022-08-17T21:25:53.262Z,97399.61
2022-08-17T21:29:00.578Z,97401.73
2022-08-17T21:31:36.109Z,97404.16
2022-08-17T21:34:27.749Z,97409.48
2022-08-17T21:37:16.376Z,97410.08
2022-08-17T21:39:50.363Z,97409.86
2022-08-17T21:42:25.795Z,97406.15
2022-08-17T21:44:58.110Z,97404.66
2022-08-17T21:47:29.036Z,97403.37
2022-08-17T21:50:19.683Z,97408.13
2022-08-17T21:52:50.382Z,97407.69
2022-08-17T21:55:29.907Z,97408.55
2022-08-17T21:58:13.328Z,97414.64
2022-08-17T22:00:44.935Z,97415.77
2022-08-17T22:03:24.409Z,97412.86
2022-08-17T22:05:52.625Z,97406.85
2022-08-17T22:08:24.808Z,97405.28
2022-08-17T22:11:01.562Z,97409.50
2022-08-17T22:13:30.116Z,97410.52
2022-08-17T22:16:04.507Z,97412.25
2022-08-17T22:18:45.337Z,97412.82
2022-08-17T22:21:16.924Z,97414.67
2022-08-17T22:24:05.267Z,97414.65
2022-08-17T22:27:01.369Z,97414.21
2022-08-17T22:29:57.068Z,97415.77
2022-08-17T22:32:31.718Z,97414.08
2022-08-17T22:35:19.776Z,97421.55
2022-08-17T22:37:48.131Z,97422.52
2022-08-17T22:40:34.661Z,97420.63
2022-08-17T22:43:06.500Z,97417.85
2022-08-17T22:45:47.164Z,97416.34
2022-08-17T22:48:22.380Z,97420.14
2022-08-17T22:51:19.357Z,97419.79
2022-08-17T22:54:10.588Z,97420.67
2022-08-17T22:57:05.366Z,97422.13
2022-08-17T22:59:55.794Z,97423.23
2022-08-17T23:02:35.472Z,97421.52
2022-08-17T23:05:17.099Z,97426.18
2022-08-17T23:07:47.178Z,97429.08
2022-08-17T23:10:15.696Z,97424.11
2022-08-17T23:12:43.870Z,97418.44
2022-08-17T23:15:17.081Z,97416.41
2022-08-17T23:17:46.354Z,97419.04
2022-08-17T23:20:16.028Z,97418.45
2022-08-17T23:22:52.821Z,97419.22
2022-08-17T23:25:30.445Z,97419.66
2022-08-17T23:28:01.762Z,97415.42
2022-08-17T23:30:32.941Z,97418.27
2022-08-17T23:33:07.561Z,97424.81
2022-08-17T23:35:40.387Z,97423.03
2022-08-17T23:38:10.979Z,97423.20
2022-08-17T23:40:41.030Z,97424.29
2022-08-17T23:43:23.951Z,97419.34
2022-08-17T23:45:55.364Z,97416.41
2022-08-17T23:48:32.516Z,97411.34
2022-08-17T23:51:09.266Z,97410.49
2022-08-17T23:53:42.008Z,97406.49
2022-08-17T23:56:11.442Z,97403.25
2022-08-17T23:58:42.505Z,97407.95
